• Join FlightAware (Why Join?)
  • Login
  • US Flag 
08:23AM EST


 

Airport Tracker/Info


-or-


 

Live Flight TrackerFlight Track Log ✈ N803ER ✈ 28-Jun-2013 ✈ KBKL - KBKL

Flight Track Log - Related Links

Times and Time Zones

All times are in EDT time to prevent confusion due to time zone crossing. See the N803ER flight status page for this flight to view local times or setup timezone preferences in your user account.

Time Position Orientation Groundspeed Altitude Reporting Facility
EDT Latitude Longitude Course Direction KTS MPH feet Rate Location/Type
12:14PM 41.5128 -81.6922 269° West 64 74 1,000  Level Cleveland Center
12:15PM 41.5125 -81.7089 269° West 72 83 1,500 600 Climbing Cleveland Center
12:16PM 41.5375 -81.7178 345° North 94 108 2,100 240 Climbing Cleveland Center
12:17PM 41.5664 -81.7294 343° North 115 132 2,100 240 Level Cleveland Center
12:18PM 41.5897 -81.7075 35° Northeast 121 139 2,600 480 Climbing Cleveland Center
12:19PM 41.6086 -81.6744 53° Northeast 107 123 3,100 120 Climbing Cleveland Center
12:21PM 41.6553 -81.6114 45° Northeast 125 144 3,100  Level Cleveland Center
12:22PM 41.6825 -81.5783 42° Northeast 123 142 3,200  Climbing Cleveland Center
12:23PM 41.7058 -81.5428 49° Northeast 126 145 3,200 -60 Level Cleveland Center
12:24PM 41.7331 -81.5069 44° Northeast 147 169 3,100  Descending Cleveland Center
12:25PM 41.7544 -81.4711 51° Northeast 127 146 3,200  Climbing Cleveland Center
12:26PM 41.7756 -81.4322 54° Northeast 128 147 3,200  Level Cleveland Center
12:27PM 41.8028 -81.4078 34° Northeast 120 138 3,200 -120 Level Cleveland Center
12:28PM 41.8303 -81.3633 50° Northeast 141 162 3,000 -60 Descending Cleveland Center
12:29PM 41.8492 -81.3303 53° Northeast 128 147 3,100  Climbing Cleveland Center
12:30PM 41.8703 -81.2942 52° Northeast 130 150 3,100 -60 Level Cleveland Center
12:31PM 41.8411 -81.2603 139° Southeast 136 157 3,000 -300 Descending Cleveland Center
12:32PM 41.8122 -81.2322 144° Southeast 124 143 2,500 -420 Descending Cleveland Center
12:33PM 41.7850 -81.2514 208° Southwest 107 123 2,200 -240 Descending Cleveland Center
12:34PM 41.7681 -81.2819 233° Southwest 106 122 2,100  Descending Cleveland Center
12:35PM 41.7472 -81.3039 218° Southwest 111 128 2,300  Climbing Cleveland Center
12:36PM 41.7303 -81.3344 233° Southwest 110 127 2,100 -480 Descending Cleveland Center
12:37PM 41.7133 -81.3592 227° Southwest 93 107 1,400 -540 Descending Cleveland Center
12:38PM 41.6944 -81.3756 213° Southwest 71 82 1,100 120 Descending Cleveland Center
12:40PM 41.6732 -81.3485 136° Southeast  Level FlightAware Approximate
12:41PM 41.6544 -81.4336 136° Southeast 87 100 1,900  Level Cleveland Center
12:42PM 41.6317 -81.4361 185° South 108 124 2,400 600 Climbing Cleveland Center
12:43PM 41.6025 -81.4244 163° South 104 120 3,100 600 Climbing Cleveland Center
12:44PM 41.5753 -81.4325 192° South 92 106 3,700 480 Climbing Cleveland Center
12:45PM 41.5481 -81.4433 197° South 105 121 4,100 60 Climbing Cleveland Center
12:46PM 41.5147 -81.4539 193° South 135 155 3,900 -600 Descending Cleveland Center
12:47PM 41.4853 -81.4728 206° Southwest 126 145 3,000 -420 Descending Cleveland Center
12:48PM 41.4708 -81.4644 157° South 121 139 3,100 60 Climbing Cleveland Center